PWSweather.com
Personal Weather Stations
Station Observations
KIMITO
Ängskulla, KimitoFI 25700

ÄngskullaKimitoFI 25700

Lat: 60.174645, Lon: 22.726327

Elevation: 36

Station Type: Davis Vantage VUE

Latest ConditionsUpdated 11:11:15 PM GMT+02:02 Saturday, Jan 25, 2020
Currently Today's Max Today's Min Today's Average
Temperature 28.8°F-1.8°C 36.0°F2.2°C 27.2°F-2.7°C 33.2°F0.7°C
Dew Point 27.0°F-2.8°C 31.6°F-0.2°C 25.4°F-3.7°C 27.4°F-2.6°C
Winds Calm Calm 5.8 mph -9.3 kmh - - 1.5 mph 2.4 kmh
Wind Gusts -- 11.5 mph18.5 kmh - -
Humidity 93% 94% 70% 80%
Pressure 29.76 in1007.8 mb 29.78 in1008.5 mb 29.48 in998.3 mb -
Hour Temp Dew Point Humidity Winds Wind Gusts Pressure Precip Precip Rate Daily Precip Total
11:11 PM 28.8°F-1.8°C 27.0°F-2.8°C 93% Calm Calm -- 29.76 in1007.8 mb - 0.00 in0.0 mm 0.00 in0.0 mm
11:05 PM 28.9°F-1.7°C 27.1°F-2.7°C 93% Calm Calm -- 29.76 in1007.8 mb - 0.00 in0.0 mm 0.00 in0.0 mm
11:00 PM 28.9°F-1.7°C 27.1°F-2.7°C 93% Calm Calm -- 29.76 in1007.8 mb - 0.00 in0.0 mm 0.00 in0.0 mm
10:54 PM 28.9°F-1.7°C 27.4°F-2.6°C 94% Calm Calm -- 29.76 in1007.8 mb - 0.00 in0.0 mm 0.00 in0.0 mm
10:48 PM 28.8°F-1.8°C 27.3°F-2.6°C 94% Calm Calm -- 29.76 in1007.8 mb - 0.00 in0.0 mm 0.00 in0.0 mm
10:43 PM 28.6°F-1.9°C 26.8°F-2.9°C 93% Calm Calm -- 29.77 in1008.1 mb - 0.00 in0.0 mm 0.00 in0.0 mm
10:37 PM 28.7°F-1.8°C 26.9°F-2.8°C 93% Calm Calm -- 29.77 in1008.1 mb - 0.00 in0.0 mm 0.00 in0.0 mm
10:31 PM 28.8°F-1.8°C 27.0°F-2.8°C 93% Calm Calm -- 29.77 in1008.1 mb - 0.00 in0.0 mm 0.00 in0.0 mm
10:26 PM 28.9°F-1.7°C 27.1°F-2.7°C 93% Calm Calm -- 29.77 in1008.1 mb - 0.00 in0.0 mm 0.00 in0.0 mm
10:20 PM 29.1°F-1.6°C 27.3°F-2.6°C 93% Calm Calm -- 29.77 in1008.1 mb - 0.00 in0.0 mm 0.00 in0.0 mm
10:15 PM 29.1°F-1.6°C 27.1°F-2.7°C 92% Calm Calm -- 29.77 in1008.1 mb - 0.00 in0.0 mm 0.00 in0.0 mm
10:09 PM 29.2°F-1.6°C 27.4°F-2.6°C 93% Calm Calm 1.1 mph1.8 kmh 29.78 in1008.5 mb - 0.00 in0.0 mm 0.00 in0.0 mm
10:03 PM 29.3°F-1.5°C 27.3°F-2.6°C 92% Calm Calm -- 29.78 in1008.5 mb - 0.00 in0.0 mm 0.00 in0.0 mm
09:58 PM 29.3°F-1.5°C 27.5°F-2.5°C 93% Calm Calm -- 29.77 in1008.1 mb - 0.00 in0.0 mm 0.00 in0.0 mm
09:52 PM 29.2°F-1.6°C 27.4°F-2.6°C 93% Calm Calm -- 29.77 in1008.1 mb - 0.00 in0.0 mm 0.00 in0.0 mm
09:46 PM 29.0°F-1.7°C 27.0°F-2.8°C 92% Calm Calm 1.1 mph1.8 kmh 29.77 in1008.1 mb - 0.00 in0.0 mm 0.00 in0.0 mm
09:41 PM 29.0°F-1.7°C 27.2°F-2.7°C 93% Calm Calm -- 29.77 in1008.1 mb - 0.00 in0.0 mm 0.00 in0.0 mm
09:35 PM 28.9°F-1.7°C 27.1°F-2.7°C 93% Calm Calm -- 29.77 in1008.1 mb - 0.00 in0.0 mm 0.00 in0.0 mm
09:30 PM 28.9°F-1.7°C 27.1°F-2.7°C 93% Calm Calm -- 29.77 in1008.1 mb - 0.00 in0.0 mm 0.00 in0.0 mm
09:24 PM 28.6°F-1.9°C 26.8°F-2.9°C 93% Calm Calm -- 29.77 in1008.1 mb - 0.00 in0.0 mm 0.00 in0.0 mm
09:18 PM 28.6°F-1.9°C 27.1°F-2.7°C 94% Calm Calm 1.1 mph1.8 kmh 29.77 in1008.1 mb - 0.00 in0.0 mm 0.00 in0.0 mm
09:13 PM 28.3°F-2.1°C 26.5°F-3.1°C 93% Calm Calm -- 29.77 in1008.1 mb - 0.00 in0.0 mm 0.00 in0.0 mm
09:07 PM 28.2°F-2.1°C 26.7°F-2.9°C 94% Calm Calm -- 29.77 in1008.1 mb - 0.00 in0.0 mm 0.00 in0.0 mm
09:01 PM 27.9°F-2.3°C 26.4°F-3.1°C 94% Calm Calm -- 29.77 in1008.1 mb - 0.00 in0.0 mm 0.00 in0.0 mm
08:56 PM 27.8°F-2.3°C 26.3°F-3.2°C 94% Calm Calm -- 29.77 in1008.1 mb - 0.00 in0.0 mm 0.00 in0.0 mm
08:50 PM 27.5°F-2.5°C 26.0°F-3.3°C 94% Calm Calm -- 29.77 in1008.1 mb - 0.00 in0.0 mm 0.00 in0.0 mm
08:45 PM 27.4°F-2.6°C 25.9°F-3.4°C 94% Calm Calm 1.1 mph1.8 kmh 29.77 in1008.1 mb - 0.00 in0.0 mm 0.00 in0.0 mm
08:39 PM 27.4°F-2.6°C 25.6°F-3.6°C 93% Calm Calm 1.1 mph1.8 kmh 29.77 in1008.1 mb - 0.00 in0.0 mm 0.00 in0.0 mm
08:33 PM 27.5°F-2.5°C 25.7°F-3.5°C 93% Calm Calm 1.1 mph1.8 kmh 29.78 in1008.5 mb - 0.00 in0.0 mm 0.00 in0.0 mm
08:28 PM 27.5°F-2.5°C 26.0°F-3.3°C 94% Calm Calm 1.1 mph1.8 kmh 29.77 in1008.1 mb - 0.00 in0.0 mm 0.00 in0.0 mm
08:22 PM 27.4°F-2.6°C 25.6°F-3.6°C 93% Calm Calm -- 29.77 in1008.1 mb - 0.00 in0.0 mm 0.00 in0.0 mm
08:16 PM 27.3°F-2.6°C 25.6°F-3.6°C 93% Calm Calm 1.1 mph1.8 kmh 29.77 in1008.1 mb - 0.00 in0.0 mm 0.00 in0.0 mm
08:11 PM 27.4°F-2.6°C 25.6°F-3.6°C 93% Calm Calm -- 29.77 in1008.1 mb - 0.00 in0.0 mm 0.00 in0.0 mm
08:05 PM 27.2°F-2.7°C 25.4°F-3.7°C 93% Calm Calm -- 29.77 in1008.1 mb - 0.00 in0.0 mm 0.00 in0.0 mm
08:00 PM 27.4°F-2.6°C 25.4°F-3.7°C 92% Calm Calm -- 29.77 in1008.1 mb - 0.00 in0.0 mm 0.00 in0.0 mm
07:54 PM 27.5°F-2.5°C 25.5°F-3.6°C 92% Calm Calm -- 29.77 in1008.1 mb - 0.00 in0.0 mm 0.00 in0.0 mm
07:48 PM 27.5°F-2.5°C 25.5°F-3.6°C 92% Calm Calm 1.1 mph1.8 kmh 29.76 in1007.8 mb - 0.00 in0.0 mm 0.00 in0.0 mm
07:43 PM 27.6°F-2.4°C 25.6°F-3.6°C 92% Calm Calm -- 29.76 in1007.8 mb - 0.00 in0.0 mm 0.00 in0.0 mm
07:37 PM 27.7°F-2.4°C 25.4°F-3.7°C 91% Calm Calm -- 29.76 in1007.8 mb - 0.00 in0.0 mm 0.00 in0.0 mm
07:31 PM 27.9°F-2.3°C 25.7°F-3.5°C 91% Calm Calm -- 29.76 in1007.8 mb - 0.00 in0.0 mm 0.00 in0.0 mm
07:26 PM 27.9°F-2.3°C 25.6°F-3.6°C 91% Calm Calm -- 29.76 in1007.8 mb - 0.00 in0.0 mm 0.00 in0.0 mm
07:20 PM 28.3°F-2.1°C 25.8°F-3.4°C 90% Calm Calm -- 29.76 in1007.8 mb - 0.00 in0.0 mm 0.00 in0.0 mm
07:15 PM 28.5°F-1.9°C 25.9°F-3.4°C 90% Calm Calm -- 29.76 in1007.8 mb - 0.00 in0.0 mm 0.00 in0.0 mm
07:09 PM 28.4°F-2.0°C 25.9°F-3.4°C 90% Calm Calm -- 29.76 in1007.8 mb - 0.00 in0.0 mm 0.00 in0.0 mm
07:03 PM 28.6°F-1.9°C 25.8°F-3.4°C 89% Calm Calm -- 29.76 in1007.8 mb - 0.00 in0.0 mm 0.00 in0.0 mm
06:58 PM 28.8°F-1.8°C 26.0°F-3.3°C 89% Calm Calm -- 29.76 in1007.8 mb - 0.00 in0.0 mm 0.00 in0.0 mm
06:52 PM 28.8°F-1.8°C 26.0°F-3.3°C 89% Calm Calm 1.1 mph1.8 kmh 29.76 in1007.8 mb - 0.00 in0.0 mm 0.00 in0.0 mm
06:46 PM 29.0°F-1.7°C 25.7°F-3.5°C 87% Calm Calm -- 29.76 in1007.8 mb - 0.00 in0.0 mm 0.00 in0.0 mm
06:41 PM 29.1°F-1.6°C 25.8°F-3.4°C 87% Calm Calm -- 29.76 in1007.8 mb - 0.00 in0.0 mm 0.00 in0.0 mm
06:35 PM 29.0°F-1.7°C 25.9°F-3.4°C 88% Calm Calm 2.3 mph3.7 kmh 29.76 in1007.8 mb - 0.00 in0.0 mm 0.00 in0.0 mm
06:30 PM 29.0°F-1.7°C 25.9°F-3.4°C 88% Calm Calm -- 29.76 in1007.8 mb - 0.00 in0.0 mm 0.00 in0.0 mm
06:24 PM 29.0°F-1.7°C 25.9°F-3.4°C 88% Calm Calm -- 29.76 in1007.8 mb - 0.00 in0.0 mm 0.00 in0.0 mm
06:18 PM 28.9°F-1.7°C 25.8°F-3.4°C 88% Calm Calm 2.3 mph3.7 kmh 29.75 in1007.5 mb - 0.00 in0.0 mm 0.00 in0.0 mm
06:13 PM 28.6°F-1.9°C 25.5°F-3.6°C 88% Calm Calm -- 29.75 in1007.5 mb - 0.00 in0.0 mm 0.00 in0.0 mm
06:07 PM 28.6°F-1.9°C 25.5°F-3.6°C 88% Calm Calm 1.1 mph1.8 kmh 29.75 in1007.5 mb - 0.00 in0.0 mm 0.00 in0.0 mm
06:01 PM 28.6°F-1.9°C 25.5°F-3.6°C 88% Calm Calm -- 29.75 in1007.5 mb - 0.00 in0.0 mm 0.00 in0.0 mm
05:56 PM 28.6°F-1.9°C 25.5°F-3.6°C 88% Calm Calm -- 29.75 in1007.5 mb - 0.00 in0.0 mm 0.00 in0.0 mm
05:50 PM 28.9°F-1.7°C 25.5°F-3.6°C 87% Calm Calm -- 29.75 in1007.5 mb - 0.00 in0.0 mm 0.00 in0.0 mm
05:45 PM 28.9°F-1.7°C 25.6°F-3.6°C 87% Calm Calm 1.1 mph1.8 kmh 29.75 in1007.5 mb - 0.00 in0.0 mm 0.00 in0.0 mm
05:39 PM 28.9°F-1.7°C 25.5°F-3.6°C 87% Calm Calm -- 29.74 in1007.1 mb - 0.00 in0.0 mm 0.00 in0.0 mm
05:33 PM 29.0°F-1.7°C 25.6°F-3.6°C 87% Calm Calm -- 29.74 in1007.1 mb - 0.00 in0.0 mm 0.00 in0.0 mm
05:28 PM 29.4°F-1.4°C 25.4°F-3.7°C 85% Calm Calm -- 29.74 in1007.1 mb - 0.00 in0.0 mm 0.00 in0.0 mm
05:22 PM 29.8°F-1.2°C 25.8°F-3.4°C 85% Calm Calm -- 29.74 in1007.1 mb - 0.00 in0.0 mm 0.00 in0.0 mm
05:16 PM 30.1°F-1.1°C 26.1°F-3.3°C 85% Calm Calm -- 29.74 in1007.1 mb - 0.00 in0.0 mm 0.00 in0.0 mm
05:11 PM 30.1°F-1.1°C 25.8°F-3.4°C 84% Calm Calm 1.1 mph1.8 kmh 29.73 in1006.8 mb - 0.00 in0.0 mm 0.00 in0.0 mm
05:05 PM 30.4°F-0.9°C 25.8°F-3.4°C 83% Calm Calm -- 29.73 in1006.8 mb - 0.00 in0.0 mm 0.00 in0.0 mm
05:00 PM 30.4°F-0.9°C 25.9°F-3.4°C 83% Calm Calm -- 29.73 in1006.8 mb - 0.00 in0.0 mm 0.00 in0.0 mm
04:54 PM 31.4°F-0.3°C 26.5°F-3.1°C 82% Calm Calm -- 29.73 in1006.8 mb - 0.00 in0.0 mm 0.00 in0.0 mm
04:48 PM 31.8°F-0.1°C 26.6°F-3.0°C 81% Calm Calm 1.1 mph1.8 kmh 29.73 in1006.8 mb - 0.00 in0.0 mm 0.00 in0.0 mm
04:43 PM 32.2°F0.1°C 26.7°F-2.9°C 80% Calm Calm -- 29.73 in1006.8 mb - 0.00 in0.0 mm 0.00 in0.0 mm
04:37 PM 32.5°F0.3°C 27.0°F-2.8°C 80% Calm Calm 1.1 mph1.8 kmh 29.73 in1006.8 mb - 0.00 in0.0 mm 0.00 in0.0 mm
04:31 PM 32.5°F0.3°C 26.7°F-2.9°C 79% 1.1 mph NNE1.8 kmh NNE 3.4 mph5.5 kmh 29.73 in1006.8 mb - 0.00 in0.0 mm 0.00 in0.0 mm
04:26 PM 32.8°F0.4°C 27.0°F-2.8°C 79% Calm Calm -- 29.73 in1006.8 mb - 0.00 in0.0 mm 0.00 in0.0 mm
04:20 PM 33.2°F0.7°C 27.4°F-2.6°C 79% 1.1 mph NE1.8 kmh NE 1.1 mph1.8 kmh 29.72 in1006.4 mb - 0.00 in0.0 mm 0.00 in0.0 mm
04:15 PM 33.4°F0.8°C 27.3°F-2.6°C 78% Calm Calm 1.1 mph1.8 kmh 29.72 in1006.4 mb - 0.00 in0.0 mm 0.00 in0.0 mm
04:09 PM 33.5°F0.8°C 27.4°F-2.6°C 78% 1.1 mph NW1.8 kmh NW 3.4 mph5.5 kmh 29.72 in1006.4 mb - 0.00 in0.0 mm 0.00 in0.0 mm
04:03 PM 33.6°F0.9°C 27.5°F-2.5°C 78% 1.1 mph SE1.8 kmh SE 2.3 mph3.7 kmh 29.72 in1006.4 mb - 0.00 in0.0 mm 0.00 in0.0 mm
03:58 PM 33.7°F0.9°C 27.3°F-2.6°C 77% 1.1 mph N1.8 kmh N 3.4 mph5.5 kmh 29.72 in1006.4 mb - 0.00 in0.0 mm 0.00 in0.0 mm
03:52 PM 33.8°F1.0°C 27.3°F-2.6°C 77% 1.1 mph NNW1.8 kmh NNW 3.4 mph5.5 kmh 29.71 in1006.1 mb - 0.00 in0.0 mm 0.00 in0.0 mm
03:46 PM 34.0°F1.1°C 27.6°F-2.4°C 77% 1.1 mph NE1.8 kmh NE 2.3 mph3.7 kmh 29.71 in1006.1 mb - 0.00 in0.0 mm 0.00 in0.0 mm
03:41 PM 34.1°F1.2°C 27.3°F-2.6°C 76% Calm Calm 2.3 mph3.7 kmh 29.71 in1006.1 mb - 0.00 in0.0 mm 0.00 in0.0 mm
03:35 PM 34.3°F1.3°C 27.5°F-2.5°C 76% 2.3 mph N3.7 kmh N 5.8 mph9.3 kmh 29.71 in1006.1 mb - 0.00 in0.0 mm 0.00 in0.0 mm
03:30 PM 34.4°F1.3°C 27.6°F-2.4°C 76% 2.3 mph N3.7 kmh N 2.3 mph3.7 kmh 29.71 in1006.1 mb - 0.00 in0.0 mm 0.00 in0.0 mm
03:24 PM 34.6°F1.4°C 27.5°F-2.5°C 75% 1.1 mph NNW1.8 kmh NNW 2.3 mph3.7 kmh 29.71 in1006.1 mb - 0.00 in0.0 mm 0.00 in0.0 mm
03:18 PM 34.6°F1.4°C 27.5°F-2.5°C 75% 2.3 mph N3.7 kmh N 3.4 mph5.5 kmh 29.71 in1006.1 mb - 0.00 in0.0 mm 0.00 in0.0 mm
03:13 PM 34.7°F1.5°C 27.6°F-2.4°C 75% 2.3 mph N3.7 kmh N 3.4 mph5.5 kmh 29.70 in1005.8 mb - 0.00 in0.0 mm 0.00 in0.0 mm
03:07 PM 34.8°F1.6°C 27.4°F-2.6°C 74% 2.3 mph N3.7 kmh N 5.8 mph9.3 kmh 29.70 in1005.8 mb - 0.00 in0.0 mm 0.00 in0.0 mm
03:01 PM 35.0°F1.7°C 27.5°F-2.5°C 74% 2.3 mph NE3.7 kmh NE 5.8 mph9.3 kmh 29.70 in1005.8 mb - 0.00 in0.0 mm 0.00 in0.0 mm
02:56 PM 35.0°F1.7°C 27.6°F-2.4°C 74% 1.1 mph N1.8 kmh N 3.4 mph5.5 kmh 29.70 in1005.8 mb - 0.00 in0.0 mm 0.00 in0.0 mm
02:50 PM 35.2°F1.8°C 27.7°F-2.4°C 74% 3.4 mph NE5.5 kmh NE 4.6 mph7.4 kmh 29.70 in1005.8 mb - 0.00 in0.0 mm 0.00 in0.0 mm
02:45 PM 35.2°F1.8°C 27.4°F-2.6°C 73% 1.1 mph N1.8 kmh N 2.3 mph3.7 kmh 29.70 in1005.8 mb - 0.00 in0.0 mm 0.00 in0.0 mm
02:39 PM 35.3°F1.8°C 27.5°F-2.5°C 73% 1.1 mph NE1.8 kmh NE 5.8 mph9.3 kmh 29.70 in1005.8 mb - 0.00 in0.0 mm 0.00 in0.0 mm
02:33 PM 35.3°F1.8°C 27.5°F-2.5°C 73% 2.3 mph NW3.7 kmh NW 3.4 mph5.5 kmh 29.69 in1005.4 mb - 0.00 in0.0 mm 0.00 in0.0 mm
02:28 PM 35.5°F1.9°C 27.7°F-2.4°C 73% 2.3 mph N3.7 kmh N 3.4 mph5.5 kmh 29.69 in1005.4 mb - 0.00 in0.0 mm 0.00 in0.0 mm
02:22 PM 35.5°F1.9°C 27.7°F-2.4°C 73% 2.3 mph NE3.7 kmh NE 5.8 mph9.3 kmh 29.69 in1005.4 mb - 0.00 in0.0 mm 0.00 in0.0 mm
02:16 PM 35.5°F1.9°C 27.7°F-2.4°C 73% 1.1 mph NE1.8 kmh NE 3.4 mph5.5 kmh 29.69 in1005.4 mb - 0.00 in0.0 mm 0.00 in0.0 mm
02:11 PM 35.5°F1.9°C 27.4°F-2.6°C 72% 1.1 mph NE1.8 kmh NE 2.3 mph3.7 kmh 29.69 in1005.4 mb - 0.00 in0.0 mm 0.00 in0.0 mm
02:05 PM 35.6°F2.0°C 27.5°F-2.5°C 72% 2.3 mph NNW3.7 kmh NNW 4.6 mph7.4 kmh 29.68 in1005.1 mb - 0.00 in0.0 mm 0.00 in0.0 mm
02:00 PM 35.6°F2.0°C 27.5°F-2.5°C 72% 1.1 mph NW1.8 kmh NW 1.1 mph1.8 kmh 29.68 in1005.1 mb - 0.00 in0.0 mm 0.00 in0.0 mm
01:54 PM 35.6°F2.0°C 27.4°F-2.6°C 72% 2.3 mph NNE3.7 kmh NNE 3.4 mph5.5 kmh 29.68 in1005.1 mb - 0.00 in0.0 mm 0.00 in0.0 mm
01:48 PM 35.5°F1.9°C 27.4°F-2.6°C 72% 2.3 mph NNW3.7 kmh NNW 3.4 mph5.5 kmh 29.68 in1005.1 mb - 0.00 in0.0 mm 0.00 in0.0 mm
01:43 PM 35.5°F1.9°C 27.3°F-2.6°C 72% 1.1 mph NE1.8 kmh NE 4.6 mph7.4 kmh 29.68 in1005.1 mb - 0.00 in0.0 mm 0.00 in0.0 mm
01:37 PM 35.4°F1.9°C 27.3°F-2.6°C 72% 1.1 mph N1.8 kmh N 3.4 mph5.5 kmh 29.68 in1005.1 mb - 0.00 in0.0 mm 0.00 in0.0 mm
01:31 PM 35.4°F1.9°C 27.0°F-2.8°C 71% 3.4 mph N5.5 kmh N 4.6 mph7.4 kmh 29.68 in1005.1 mb - 0.00 in0.0 mm 0.00 in0.0 mm
01:26 PM 35.5°F1.9°C 27.0°F-2.8°C 71% 2.3 mph NNE3.7 kmh NNE 4.6 mph7.4 kmh 29.68 in1005.1 mb - 0.00 in0.0 mm 0.00 in0.0 mm
01:20 PM 35.5°F1.9°C 27.0°F-2.8°C 71% 2.3 mph N3.7 kmh N 4.6 mph7.4 kmh 29.67 in1004.7 mb - 0.00 in0.0 mm 0.00 in0.0 mm
01:15 PM 35.5°F1.9°C 27.0°F-2.8°C 71% 2.3 mph NNE3.7 kmh NNE 5.8 mph9.3 kmh 29.67 in1004.7 mb - 0.00 in0.0 mm 0.00 in0.0 mm
01:09 PM 35.5°F1.9°C 27.0°F-2.8°C 71% 4.6 mph N7.4 kmh N 10.3 mph16.6 kmh 29.67 in1004.7 mb - 0.00 in0.0 mm 0.00 in0.0 mm
01:03 PM 35.5°F1.9°C 27.0°F-2.8°C 71% 1.1 mph NE1.8 kmh NE 8.0 mph12.9 kmh 29.67 in1004.7 mb - 0.00 in0.0 mm 0.00 in0.0 mm
12:58 PM 35.5°F1.9°C 27.0°F-2.8°C 71% 3.4 mph NNE5.5 kmh NNE 11.5 mph18.5 kmh 29.67 in1004.7 mb - 0.00 in0.0 mm 0.00 in0.0 mm
12:52 PM 35.5°F1.9°C 27.0°F-2.8°C 71% 4.6 mph N7.4 kmh N 8.0 mph12.9 kmh 29.67 in1004.7 mb - 0.00 in0.0 mm 0.00 in0.0 mm
12:46 PM 35.5°F1.9°C 27.4°F-2.6°C 72% 2.3 mph NE3.7 kmh NE 2.3 mph3.7 kmh 29.66 in1004.4 mb - 0.00 in0.0 mm 0.00 in0.0 mm
12:41 PM 35.5°F1.9°C 27.4°F-2.6°C 72% 2.3 mph N3.7 kmh N 3.4 mph5.5 kmh 29.66 in1004.4 mb - 0.00 in0.0 mm 0.00 in0.0 mm
12:35 PM 35.5°F1.9°C 27.4°F-2.6°C 72% 4.6 mph N7.4 kmh N 9.2 mph14.8 kmh 29.66 in1004.4 mb - 0.00 in0.0 mm 0.00 in0.0 mm
12:30 PM 35.5°F1.9°C 27.4°F-2.6°C 72% 2.3 mph NNE3.7 kmh NNE 3.4 mph5.5 kmh 29.66 in1004.4 mb - 0.00 in0.0 mm 0.00 in0.0 mm
12:24 PM 35.5°F1.9°C 27.4°F-2.6°C 72% 3.4 mph N5.5 kmh N 8.0 mph12.9 kmh 29.66 in1004.4 mb - 0.00 in0.0 mm 0.00 in0.0 mm
12:18 PM 35.6°F2.0°C 27.1°F-2.7°C 71% 3.4 mph N5.5 kmh N 2.3 mph3.7 kmh 29.66 in1004.4 mb - 0.00 in0.0 mm 0.00 in0.0 mm
12:13 PM 35.5°F1.9°C 27.1°F-2.7°C 71% 2.3 mph NE3.7 kmh NE 3.4 mph5.5 kmh 29.66 in1004.4 mb - 0.00 in0.0 mm 0.00 in0.0 mm
12:07 PM 35.5°F1.9°C 27.1°F-2.7°C 71% 2.3 mph NE3.7 kmh NE 3.4 mph5.5 kmh 29.65 in1004.1 mb - 0.00 in0.0 mm 0.00 in0.0 mm
12:01 PM 35.6°F2.0°C 26.8°F-2.9°C 70% 4.6 mph N7.4 kmh N 8.0 mph12.9 kmh 29.65 in1004.1 mb - 0.00 in0.0 mm 0.00 in0.0 mm
11:56 AM 35.7°F2.1°C 26.9°F-2.8°C 70% 3.4 mph NNE5.5 kmh NNE 11.5 mph18.5 kmh 29.65 in1004.1 mb - 0.00 in0.0 mm 0.00 in0.0 mm
11:50 AM 35.9°F2.2°C 27.1°F-2.7°C 70% 1.1 mph NE1.8 kmh NE 4.6 mph7.4 kmh 29.64 in1003.7 mb - 0.00 in0.0 mm 0.00 in0.0 mm
11:45 AM 35.9°F2.2°C 27.1°F-2.7°C 70% 4.6 mph NNE7.4 kmh NNE 8.0 mph12.9 kmh 29.64 in1003.7 mb - 0.00 in0.0 mm 0.00 in0.0 mm
11:39 AM 35.9°F2.2°C 27.1°F-2.7°C 70% 2.3 mph N3.7 kmh N 4.6 mph7.4 kmh 29.64 in1003.7 mb - 0.00 in0.0 mm 0.00 in0.0 mm
11:33 AM 36.0°F2.2°C 27.1°F-2.7°C 70% 3.4 mph N5.5 kmh N 6.9 mph11.1 kmh 29.63 in1003.4 mb - 0.00 in0.0 mm 0.00 in0.0 mm
11:28 AM 35.9°F2.2°C 27.0°F-2.8°C 70% 3.4 mph ENE5.5 kmh ENE 2.3 mph3.7 kmh 29.63 in1003.4 mb - 0.00 in0.0 mm 0.00 in0.0 mm
11:22 AM 35.9°F2.2°C 27.0°F-2.8°C 70% 4.6 mph NE7.4 kmh NE 6.9 mph11.1 kmh 29.63 in1003.4 mb - 0.00 in0.0 mm 0.00 in0.0 mm
11:16 AM 35.9°F2.2°C 27.1°F-2.7°C 70% 3.4 mph N5.5 kmh N 11.5 mph18.5 kmh 29.63 in1003.4 mb - 0.00 in0.0 mm 0.00 in0.0 mm
11:11 AM 35.9°F2.2°C 27.4°F-2.6°C 71% 2.3 mph NNE3.7 kmh NNE 3.4 mph5.5 kmh 29.63 in1003.4 mb - 0.00 in0.0 mm 0.00 in0.0 mm
11:05 AM 35.9°F2.2°C 27.4°F-2.6°C 71% 2.3 mph NE3.7 kmh NE 5.8 mph9.3 kmh 29.62 in1003.0 mb - 0.00 in0.0 mm 0.00 in0.0 mm
11:00 AM 35.9°F2.2°C 27.4°F-2.6°C 71% 3.4 mph NNE5.5 kmh NNE 8.0 mph12.9 kmh 29.62 in1003.0 mb - 0.00 in0.0 mm 0.00 in0.0 mm
10:54 AM 35.9°F2.2°C 27.4°F-2.6°C 71% 5.8 mph N9.3 kmh N 8.0 mph12.9 kmh 29.62 in1003.0 mb - 0.00 in0.0 mm 0.00 in0.0 mm
10:48 AM 35.9°F2.2°C 27.4°F-2.6°C 71% 3.4 mph NE5.5 kmh NE 6.9 mph11.1 kmh 29.62 in1003.0 mb - 0.00 in0.0 mm 0.00 in0.0 mm
10:43 AM 35.7°F2.1°C 27.2°F-2.7°C 71% 3.4 mph NE5.5 kmh NE 3.4 mph5.5 kmh 29.62 in1003.0 mb - 0.00 in0.0 mm 0.00 in0.0 mm
10:37 AM 35.6°F2.0°C 27.1°F-2.7°C 71% 3.4 mph NE5.5 kmh NE 5.8 mph9.3 kmh 29.62 in1003.0 mb - 0.00 in0.0 mm 0.00 in0.0 mm
10:31 AM 35.6°F2.0°C 27.1°F-2.7°C 71% 4.6 mph NNE7.4 kmh NNE 6.9 mph11.1 kmh 29.61 in1002.7 mb - 0.00 in0.0 mm 0.00 in0.0 mm
10:26 AM 35.5°F1.9°C 27.0°F-2.8°C 71% 3.4 mph N5.5 kmh N 6.9 mph11.1 kmh 29.61 in1002.7 mb - 0.00 in0.0 mm 0.00 in0.0 mm
10:20 AM 35.6°F2.0°C 27.1°F-2.7°C 71% 3.4 mph NE5.5 kmh NE 9.2 mph14.8 kmh 29.61 in1002.7 mb - 0.00 in0.0 mm 0.00 in0.0 mm
10:15 AM 35.5°F1.9°C 27.0°F-2.8°C 71% 2.3 mph NNE3.7 kmh NNE 5.8 mph9.3 kmh 29.61 in1002.7 mb - 0.00 in0.0 mm 0.00 in0.0 mm
10:09 AM 35.3°F1.8°C 26.8°F-2.9°C 71% 2.3 mph S3.7 kmh S 8.0 mph12.9 kmh 29.60 in1002.4 mb - 0.00 in0.0 mm 0.00 in0.0 mm
10:03 AM 35.3°F1.8°C 27.2°F-2.7°C 72% 3.4 mph NNE5.5 kmh NNE 4.6 mph7.4 kmh 29.60 in1002.4 mb - 0.00 in0.0 mm 0.00 in0.0 mm
09:58 AM 35.3°F1.8°C 27.2°F-2.7°C 72% 3.4 mph N5.5 kmh N 5.8 mph9.3 kmh 29.60 in1002.4 mb - 0.00 in0.0 mm 0.00 in0.0 mm
09:52 AM 35.2°F1.8°C 27.1°F-2.7°C 72% 4.6 mph NE7.4 kmh NE 5.8 mph9.3 kmh 29.60 in1002.4 mb - 0.00 in0.0 mm 0.00 in0.0 mm
09:46 AM 35.1°F1.7°C 27.0°F-2.8°C 72% 1.1 mph NE1.8 kmh NE 4.6 mph7.4 kmh 29.60 in1002.4 mb - 0.00 in0.0 mm 0.00 in0.0 mm
09:41 AM 35.0°F1.7°C 26.9°F-2.8°C 72% 2.3 mph NE3.7 kmh NE 2.3 mph3.7 kmh 29.59 in1002.0 mb - 0.00 in0.0 mm 0.00 in0.0 mm
09:35 AM 34.8°F1.6°C 27.0°F-2.8°C 73% 3.4 mph NE5.5 kmh NE 5.8 mph9.3 kmh 29.59 in1002.0 mb - 0.00 in0.0 mm 0.00 in0.0 mm
09:30 AM 34.6°F1.4°C 26.8°F-2.9°C 73% 3.4 mph NNE5.5 kmh NNE 5.8 mph9.3 kmh 29.59 in1002.0 mb - 0.00 in0.0 mm 0.00 in0.0 mm
09:24 AM 34.5°F1.4°C 26.7°F-2.9°C 73% 3.4 mph N5.5 kmh N 6.9 mph11.1 kmh 29.58 in1001.7 mb - 0.00 in0.0 mm 0.00 in0.0 mm
09:18 AM 34.4°F1.3°C 26.6°F-3.0°C 73% 2.3 mph NE3.7 kmh NE 5.8 mph9.3 kmh 29.58 in1001.7 mb - 0.00 in0.0 mm 0.00 in0.0 mm
09:13 AM 34.4°F1.3°C 26.6°F-3.0°C 73% 2.3 mph NE3.7 kmh NE 5.8 mph9.3 kmh 29.58 in1001.7 mb - 0.00 in0.0 mm 0.00 in0.0 mm
09:07 AM 34.4°F1.3°C 26.6°F-3.0°C 73% 3.4 mph N5.5 kmh N 5.8 mph9.3 kmh 29.58 in1001.7 mb - 0.00 in0.0 mm 0.00 in0.0 mm
09:01 AM 34.4°F1.3°C 26.6°F-3.0°C 73% 3.4 mph NNE5.5 kmh NNE 6.9 mph11.1 kmh 29.58 in1001.7 mb - 0.00 in0.0 mm 0.00 in0.0 mm
08:56 AM 34.3°F1.3°C 26.5°F-3.1°C 73% 1.1 mph ENE1.8 kmh ENE 2.3 mph3.7 kmh 29.57 in1001.4 mb - 0.00 in0.0 mm 0.00 in0.0 mm
08:50 AM 34.4°F1.3°C 26.6°F-3.0°C 73% 2.3 mph ENE3.7 kmh ENE 3.4 mph5.5 kmh 29.57 in1001.4 mb - 0.00 in0.0 mm 0.00 in0.0 mm
08:45 AM 34.3°F1.3°C 26.5°F-3.1°C 73% 1.1 mph WSW1.8 kmh WSW 2.3 mph3.7 kmh 29.57 in1001.4 mb - 0.00 in0.0 mm 0.00 in0.0 mm
08:39 AM 34.4°F1.3°C 26.6°F-3.0°C 73% 3.4 mph N5.5 kmh N 5.8 mph9.3 kmh 29.57 in1001.4 mb - 0.00 in0.0 mm 0.00 in0.0 mm
08:33 AM 34.3°F1.3°C 26.5°F-3.1°C 73% 2.3 mph NNE3.7 kmh NNE 6.9 mph11.1 kmh 29.56 in1001.0 mb - 0.00 in0.0 mm 0.00 in0.0 mm
08:28 AM 34.4°F1.3°C 26.6°F-3.0°C 73% 4.6 mph NNE7.4 kmh NNE 9.2 mph14.8 kmh 29.56 in1001.0 mb - 0.00 in0.0 mm 0.00 in0.0 mm
08:22 AM 34.4°F1.3°C 26.6°F-3.0°C 73% 1.1 mph NNW1.8 kmh NNW 9.2 mph14.8 kmh 29.56 in1001.0 mb - 0.00 in0.0 mm 0.00 in0.0 mm
08:16 AM 34.6°F1.4°C 26.8°F-2.9°C 73% 3.4 mph NE5.5 kmh NE 9.2 mph14.8 kmh 29.56 in1001.0 mb - 0.00 in0.0 mm 0.00 in0.0 mm
08:11 AM 34.5°F1.4°C 26.4°F-3.1°C 72% 2.3 mph N3.7 kmh N 4.6 mph7.4 kmh 29.56 in1001.0 mb - 0.00 in0.0 mm 0.00 in0.0 mm
08:05 AM 34.6°F1.4°C 26.5°F-3.1°C 72% 3.4 mph NE5.5 kmh NE 5.8 mph9.3 kmh 29.56 in1001.0 mb - 0.00 in0.0 mm 0.00 in0.0 mm
08:00 AM 34.6°F1.4°C 26.5°F-3.1°C 72% 3.4 mph N5.5 kmh N 9.2 mph14.8 kmh 29.55 in1000.7 mb - 0.00 in0.0 mm 0.00 in0.0 mm
07:54 AM 34.8°F1.6°C 26.7°F-2.9°C 72% 3.4 mph NE5.5 kmh NE 3.4 mph5.5 kmh 29.55 in1000.7 mb - 0.00 in0.0 mm 0.00 in0.0 mm
07:48 AM 34.8°F1.6°C 26.7°F-2.9°C 72% 4.6 mph NNE7.4 kmh NNE 5.8 mph9.3 kmh 29.55 in1000.7 mb - 0.00 in0.0 mm 0.00 in0.0 mm
07:43 AM 34.9°F1.6°C 26.8°F-2.9°C 72% 3.4 mph NW5.5 kmh NW 3.4 mph5.5 kmh 29.55 in1000.7 mb - 0.00 in0.0 mm 0.00 in0.0 mm
07:37 AM 34.8°F1.6°C 26.7°F-2.9°C 72% 4.6 mph NE7.4 kmh NE 8.0 mph12.9 kmh 29.55 in1000.7 mb - 0.00 in0.0 mm 0.00 in0.0 mm
07:31 AM 34.8°F1.6°C 26.7°F-2.9°C 72% 2.3 mph NNE3.7 kmh NNE 8.0 mph12.9 kmh 29.54 in1000.3 mb - 0.00 in0.0 mm 0.00 in0.0 mm
07:26 AM 34.7°F1.5°C 26.6°F-3.0°C 72% 2.3 mph NNE3.7 kmh NNE 3.4 mph5.5 kmh 29.55 in1000.7 mb - 0.00 in0.0 mm 0.00 in0.0 mm
07:20 AM 34.8°F1.6°C 26.7°F-2.9°C 72% 4.6 mph NW7.4 kmh NW 6.9 mph11.1 kmh 29.54 in1000.3 mb - 0.00 in0.0 mm 0.00 in0.0 mm
07:15 AM 34.7°F1.5°C 26.6°F-3.0°C 72% 2.3 mph ESE3.7 kmh ESE 3.4 mph5.5 kmh 29.54 in1000.3 mb - 0.00 in0.0 mm 0.00 in0.0 mm
07:09 AM 34.7°F1.5°C 26.6°F-3.0°C 72% 3.4 mph NE5.5 kmh NE 5.8 mph9.3 kmh 29.54 in1000.3 mb - 0.00 in0.0 mm 0.00 in0.0 mm
07:03 AM 34.8°F1.6°C 26.7°F-2.9°C 72% 2.3 mph NNE3.7 kmh NNE 3.4 mph5.5 kmh 29.53 in1000.0 mb - 0.00 in0.0 mm 0.00 in0.0 mm
06:58 AM 34.8°F1.6°C 26.4°F-3.1°C 71% 3.4 mph N5.5 kmh N 5.8 mph9.3 kmh 29.53 in1000.0 mb - 0.00 in0.0 mm 0.00 in0.0 mm
06:52 AM 34.7°F1.5°C 26.3°F-3.2°C 71% 3.4 mph NE5.5 kmh NE 4.6 mph7.4 kmh 29.53 in1000.0 mb - 0.00 in0.0 mm 0.00 in0.0 mm
06:46 AM 34.8°F1.6°C 26.3°F-3.2°C 71% 2.3 mph N3.7 kmh N 3.4 mph5.5 kmh 29.52 in999.7 mb - 0.00 in0.0 mm 0.00 in0.0 mm
06:41 AM 34.8°F1.6°C 26.4°F-3.1°C 71% 2.3 mph NNE3.7 kmh NNE 3.4 mph5.5 kmh 29.52 in999.7 mb - 0.00 in0.0 mm 0.00 in0.0 mm
06:35 AM 34.9°F1.6°C 26.4°F-3.1°C 71% 2.3 mph E3.7 kmh E 3.4 mph5.5 kmh 29.52 in999.7 mb - 0.00 in0.0 mm 0.00 in0.0 mm
06:30 AM 34.9°F1.6°C 26.1°F-3.3°C 70% 4.6 mph N7.4 kmh N 11.5 mph18.5 kmh 29.52 in999.7 mb - 0.00 in0.0 mm 0.00 in0.0 mm
06:24 AM 34.8°F1.6°C 26.4°F-3.1°C 71% 2.3 mph NNE3.7 kmh NNE 4.6 mph7.4 kmh 29.52 in999.7 mb - 0.00 in0.0 mm 0.00 in0.0 mm
06:18 AM 34.8°F1.6°C 26.4°F-3.1°C 71% 2.3 mph NE3.7 kmh NE 3.4 mph5.5 kmh 29.52 in999.7 mb - 0.00 in0.0 mm 0.00 in0.0 mm
06:13 AM 34.8°F1.6°C 26.4°F-3.1°C 71% 3.4 mph N5.5 kmh N 4.6 mph7.4 kmh 29.52 in999.7 mb - 0.00 in0.0 mm 0.00 in0.0 mm
06:07 AM 34.8°F1.6°C 26.4°F-3.1°C 71% 2.3 mph NNE3.7 kmh NNE 8.0 mph12.9 kmh 29.52 in999.7 mb - 0.00 in0.0 mm 0.00 in0.0 mm
06:01 AM 34.9°F1.6°C 26.4°F-3.1°C 71% 2.3 mph ENE3.7 kmh ENE 3.4 mph5.5 kmh 29.52 in999.7 mb - 0.00 in0.0 mm 0.00 in0.0 mm
05:56 AM 34.9°F1.6°C 26.1°F-3.3°C 70% 4.6 mph N7.4 kmh N 6.9 mph11.1 kmh 29.52 in999.7 mb - 0.00 in0.0 mm 0.00 in0.0 mm
05:50 AM 34.8°F1.6°C 26.4°F-3.1°C 71% 1.1 mph NE1.8 kmh NE 3.4 mph5.5 kmh 29.52 in999.7 mb - 0.00 in0.0 mm 0.00 in0.0 mm
05:45 AM 34.8°F1.6°C 26.4°F-3.1°C 71% 1.1 mph NW1.8 kmh NW 5.8 mph9.3 kmh 29.52 in999.7 mb - 0.00 in0.0 mm 0.00 in0.0 mm
05:39 AM 34.8°F1.6°C 26.7°F-2.9°C 72% 2.3 mph SE3.7 kmh SE 5.8 mph9.3 kmh 29.51 in999.3 mb - 0.00 in0.0 mm 0.00 in0.0 mm
05:33 AM 34.8°F1.6°C 26.7°F-2.9°C 72% 4.6 mph NE7.4 kmh NE 10.3 mph16.6 kmh 29.52 in999.7 mb - 0.00 in0.0 mm 0.00 in0.0 mm
05:28 AM 35.1°F1.7°C 27.0°F-2.8°C 72% 2.3 mph ENE3.7 kmh ENE 4.6 mph7.4 kmh 29.51 in999.3 mb - 0.00 in0.0 mm 0.00 in0.0 mm
05:22 AM 35.3°F1.8°C 27.1°F-2.7°C 72% 2.3 mph N3.7 kmh N 5.8 mph9.3 kmh 29.52 in999.7 mb - 0.00 in0.0 mm 0.00 in0.0 mm
05:16 AM 35.3°F1.8°C 27.5°F-2.5°C 73% 3.4 mph NE5.5 kmh NE 5.8 mph9.3 kmh 29.52 in999.7 mb - 0.00 in0.0 mm 0.00 in0.0 mm
05:11 AM 35.3°F1.8°C 27.5°F-2.5°C 73% 2.3 mph N3.7 kmh N 3.4 mph5.5 kmh 29.52 in999.7 mb - 0.00 in0.0 mm 0.00 in0.0 mm
05:05 AM 35.2°F1.8°C 27.7°F-2.4°C 74% 3.4 mph NE5.5 kmh NE 4.6 mph7.4 kmh 29.51 in999.3 mb - 0.00 in0.0 mm 0.00 in0.0 mm
05:00 AM 35.1°F1.7°C 27.7°F-2.4°C 74% 2.3 mph NE3.7 kmh NE 5.8 mph9.3 kmh 29.51 in999.3 mb - 0.00 in0.0 mm 0.00 in0.0 mm
04:54 AM 35.3°F1.8°C 28.2°F-2.1°C 75% 1.1 mph NNE1.8 kmh NNE 3.4 mph5.5 kmh 29.51 in999.3 mb - 0.00 in0.0 mm 0.00 in0.0 mm
04:48 AM 35.3°F1.8°C 28.2°F-2.1°C 75% 1.1 mph NE1.8 kmh NE 4.6 mph7.4 kmh 29.51 in999.3 mb - 0.00 in0.0 mm 0.00 in0.0 mm
04:43 AM 35.4°F1.9°C 28.3°F-2.1°C 75% 1.1 mph NNE1.8 kmh NNE 4.6 mph7.4 kmh 29.51 in999.3 mb - 0.00 in0.0 mm 0.00 in0.0 mm
04:37 AM 35.4°F1.9°C 28.3°F-2.1°C 75% 1.1 mph NE1.8 kmh NE 3.4 mph5.5 kmh 29.50 in999.0 mb - 0.00 in0.0 mm 0.00 in0.0 mm
04:31 AM 35.3°F1.8°C 28.2°F-2.1°C 75% 3.4 mph N5.5 kmh N 3.4 mph5.5 kmh 29.50 in999.0 mb - 0.00 in0.0 mm 0.00 in0.0 mm
04:26 AM 35.2°F1.8°C 28.1°F-2.2°C 75% 4.6 mph NNE7.4 kmh NNE 9.2 mph14.8 kmh 29.50 in999.0 mb - 0.00 in0.0 mm 0.00 in0.0 mm
04:20 AM 35.2°F1.8°C 28.1°F-2.2°C 75% Calm Calm 2.3 mph3.7 kmh 29.50 in999.0 mb - 0.00 in0.0 mm 0.00 in0.0 mm
04:15 AM 35.3°F1.8°C 28.2°F-2.1°C 75% Calm Calm 2.3 mph3.7 kmh 29.50 in999.0 mb - 0.00 in0.0 mm 0.00 in0.0 mm
04:09 AM 35.3°F1.8°C 27.9°F-2.3°C 74% 1.1 mph NE1.8 kmh NE 3.4 mph5.5 kmh 29.50 in999.0 mb - 0.00 in0.0 mm 0.00 in0.0 mm
04:03 AM 35.0°F1.7°C 27.9°F-2.3°C 75% 3.4 mph NE5.5 kmh NE 5.8 mph9.3 kmh 29.50 in999.0 mb - 0.00 in0.0 mm 0.00 in0.0 mm
03:58 AM 35.1°F1.7°C 28.0°F-2.2°C 75% 1.1 mph NNW1.8 kmh NNW 1.1 mph1.8 kmh 29.50 in999.0 mb - 0.00 in0.0 mm 0.00 in0.0 mm
03:52 AM 34.9°F1.6°C 28.1°F-2.2°C 76% 1.1 mph NE1.8 kmh NE 2.3 mph3.7 kmh 29.50 in999.0 mb - 0.00 in0.0 mm 0.00 in0.0 mm
03:46 AM 35.1°F1.7°C 28.3°F-2.1°C 76% 2.3 mph NNE3.7 kmh NNE 5.8 mph9.3 kmh 29.50 in999.0 mb - 0.00 in0.0 mm 0.00 in0.0 mm
03:41 AM 35.1°F1.7°C 28.3°F-2.1°C 76% 1.1 mph NNE1.8 kmh NNE 3.4 mph5.5 kmh 29.50 in999.0 mb - 0.00 in0.0 mm 0.00 in0.0 mm
03:35 AM 35.5°F1.9°C 28.3°F-2.1°C 75% 1.1 mph E1.8 kmh E 3.4 mph5.5 kmh 29.50 in999.0 mb - 0.00 in0.0 mm 0.00 in0.0 mm
03:30 AM 35.4°F1.9°C 28.6°F-1.9°C 76% 1.1 mph E1.8 kmh E 3.4 mph5.5 kmh 29.49 in998.6 mb - 0.00 in0.0 mm 0.00 in0.0 mm
03:24 AM 35.2°F1.8°C 28.7°F-1.8°C 77% 2.3 mph N3.7 kmh N 3.4 mph5.5 kmh 29.49 in998.6 mb - 0.00 in0.0 mm 0.00 in0.0 mm
03:18 AM 35.1°F1.7°C 28.9°F-1.7°C 78% 2.3 mph NE3.7 kmh NE 3.4 mph5.5 kmh 29.49 in998.6 mb - 0.00 in0.0 mm 0.00 in0.0 mm
03:13 AM 34.8°F1.6°C 29.3°F-1.5°C 80% 2.3 mph S3.7 kmh S 4.6 mph7.4 kmh 29.50 in999.0 mb - 0.00 in0.0 mm 0.00 in0.0 mm
03:07 AM 34.8°F1.6°C 29.2°F-1.6°C 80% 1.1 mph SE1.8 kmh SE 3.4 mph5.5 kmh 29.50 in999.0 mb - 0.00 in0.0 mm 0.00 in0.0 mm
03:01 AM 34.5°F1.4°C 29.6°F-1.3°C 82% Calm Calm 2.3 mph3.7 kmh 29.50 in999.0 mb - 0.00 in0.0 mm 0.00 in0.0 mm
02:56 AM 34.5°F1.4°C 29.6°F-1.3°C 82% Calm Calm 2.3 mph3.7 kmh 29.50 in999.0 mb - 0.00 in0.0 mm 0.00 in0.0 mm
02:50 AM 34.5°F1.4°C 29.6°F-1.3°C 82% Calm Calm 1.1 mph1.8 kmh 29.50 in999.0 mb - 0.00 in0.0 mm 0.00 in0.0 mm
02:45 AM 34.5°F1.4°C 29.6°F-1.3°C 82% Calm Calm 1.1 mph1.8 kmh 29.50 in999.0 mb - 0.00 in0.0 mm 0.00 in0.0 mm
02:39 AM 34.7°F1.5°C 29.8°F-1.2°C 82% 1.1 mph ESE1.8 kmh ESE 2.3 mph3.7 kmh 29.49 in998.6 mb - 0.00 in0.0 mm 0.00 in0.0 mm
02:33 AM 34.9°F1.6°C 30.0°F-1.1°C 82% 1.1 mph NNW1.8 kmh NNW 2.3 mph3.7 kmh 29.49 in998.6 mb - 0.00 in0.0 mm 0.00 in0.0 mm
02:28 AM 34.4°F1.3°C 30.1°F-1.1°C 84% 2.3 mph NE3.7 kmh NE 4.6 mph7.4 kmh 29.49 in998.6 mb - 0.00 in0.0 mm 0.00 in0.0 mm
02:22 AM 34.6°F1.4°C 30.2°F-1.0°C 84% Calm Calm 2.3 mph3.7 kmh 29.49 in998.6 mb - 0.00 in0.0 mm 0.00 in0.0 mm
02:16 AM 34.6°F1.4°C 30.6°F-0.8°C 85% Calm Calm 3.4 mph5.5 kmh 29.49 in998.6 mb - 0.00 in0.0 mm 0.00 in0.0 mm
02:11 AM 34.6°F1.4°C 30.5°F-0.8°C 85% 1.1 mph NNE1.8 kmh NNE 2.3 mph3.7 kmh 29.49 in998.6 mb - 0.00 in0.0 mm 0.00 in0.0 mm
02:05 AM 34.7°F1.5°C 30.7°F-0.7°C 85% Calm Calm 1.1 mph1.8 kmh 29.49 in998.6 mb - 0.00 in0.0 mm 0.00 in0.0 mm
02:00 AM 34.6°F1.4°C 30.5°F-0.8°C 85% Calm Calm 3.4 mph5.5 kmh 29.49 in998.6 mb - 0.00 in0.0 mm 0.00 in0.0 mm
01:54 AM 34.7°F1.5°C 30.9°F-0.6°C 86% 1.1 mph SSW1.8 kmh SSW 1.1 mph1.8 kmh 29.49 in998.6 mb - 0.00 in0.0 mm 0.00 in0.0 mm
01:48 AM 34.8°F1.6°C 31.0°F-0.6°C 86% Calm Calm 2.3 mph3.7 kmh 29.49 in998.6 mb - 0.00 in0.0 mm 0.00 in0.0 mm
01:43 AM 35.1°F1.7°C 31.1°F-0.5°C 85% 1.1 mph N1.8 kmh N 1.1 mph1.8 kmh 29.48 in998.3 mb - 0.00 in0.0 mm 0.00 in0.0 mm
01:37 AM 35.1°F1.7°C 31.1°F-0.5°C 85% Calm Calm 1.1 mph1.8 kmh 29.49 in998.6 mb - 0.00 in0.0 mm 0.00 in0.0 mm
01:31 AM 35.0°F1.7°C 31.2°F-0.4°C 86% 1.1 mph ESE1.8 kmh ESE 5.8 mph9.3 kmh 29.48 in998.3 mb - 0.00 in0.0 mm 0.00 in0.0 mm
01:26 AM 35.0°F1.7°C 31.2°F-0.4°C 86% 1.1 mph S1.8 kmh S 3.4 mph5.5 kmh 29.48 in998.3 mb - 0.00 in0.0 mm 0.00 in0.0 mm
01:20 AM 35.1°F1.7°C 31.3°F-0.4°C 86% 1.1 mph ESE1.8 kmh ESE 2.3 mph3.7 kmh 29.49 in998.6 mb - 0.00 in0.0 mm 0.00 in0.0 mm
01:15 AM 35.2°F1.8°C 31.4°F-0.3°C 86% Calm Calm 2.3 mph3.7 kmh 29.48 in998.3 mb - 0.00 in0.0 mm 0.00 in0.0 mm
01:09 AM 35.1°F1.7°C 31.3°F-0.4°C 86% 2.3 mph WNW3.7 kmh WNW 3.4 mph5.5 kmh 29.48 in998.3 mb - 0.00 in0.0 mm 0.00 in0.0 mm
01:03 AM 35.1°F1.7°C 31.6°F-0.2°C 87% 1.1 mph NW1.8 kmh NW 1.1 mph1.8 kmh 29.48 in998.3 mb - 0.00 in0.0 mm 0.00 in0.0 mm
12:58 AM 34.8°F1.6°C 31.6°F-0.2°C 88% 1.1 mph SE1.8 kmh SE 4.6 mph7.4 kmh 29.48 in998.3 mb - 0.00 in0.0 mm 0.00 in0.0 mm
12:52 AM 34.7°F1.5°C 31.5°F-0.3°C 88% Calm Calm 2.3 mph3.7 kmh 29.48 in998.3 mb - 0.00 in0.0 mm 0.00 in0.0 mm
12:46 AM 34.4°F1.3°C 31.5°F-0.3°C 89% 1.1 mph E1.8 kmh E 3.4 mph5.5 kmh 29.48 in998.3 mb - 0.00 in0.0 mm 0.00 in0.0 mm
12:41 AM 34.3°F1.3°C 31.4°F-0.3°C 89% 2.3 mph SSE3.7 kmh SSE 3.4 mph5.5 kmh 29.48 in998.3 mb - 0.00 in0.0 mm 0.00 in0.0 mm
12:35 AM 34.0°F1.1°C 31.1°F-0.5°C 89% Calm Calm 1.1 mph1.8 kmh 29.48 in998.3 mb - 0.00 in0.0 mm 0.00 in0.0 mm
12:30 AM 33.9°F1.1°C 31.2°F-0.4°C 90% 1.1 mph E1.8 kmh E 1.1 mph1.8 kmh 29.48 in998.3 mb - 0.00 in0.0 mm 0.00 in0.0 mm
12:24 AM 33.5°F0.8°C 31.2°F-0.4°C 91% 1.1 mph NE1.8 kmh NE 1.1 mph1.8 kmh 29.48 in998.3 mb - 0.00 in0.0 mm 0.00 in0.0 mm
12:18 AM 33.5°F0.8°C 31.2°F-0.4°C 91% Calm Calm -- 29.48 in998.3 mb - 0.00 in0.0 mm 0.00 in0.0 mm
12:13 AM 33.0°F0.6°C 31.0°F-0.6°C 92% Calm Calm 2.3 mph3.7 kmh 29.48 in998.3 mb - 0.00 in0.0 mm 0.00 in0.0 mm
12:07 AM 32.9°F0.5°C 30.8°F-0.7°C 92% Calm Calm 1.1 mph1.8 kmh 29.48 in998.3 mb - 0.00 in0.0 mm 0.00 in0.0 mm
12:01 AM 32.9°F0.5°C 30.8°F-0.7°C 92% Calm Calm -- 29.49 in998.6 mb - 0.00 in0.0 mm 0.00 in0.0 mm